Altai — V7XL4 — position and weather

sailwx.info

Track history (hours):
 
Tides and Currents Weather Stations Pressure Air Temp Water Temp Dewpoint Dewpoint Depression Visibility Wind Speed Wind Dir Waves Ship Positions

Altai

Last reported at 2017-Dec-11 07:02 UTC. Time now 2017-Dec-13 22:46 UTC.
Position N 44°24' E 037°10'.

Length 249 m; draft 8 m.

Type: Ship (hazmat cat A). MMSI: 538004508.

Date/timePositionNaut miles runAvg speedWind from/ knotsBaromVisibWave heightAir tempDewpointWater temp
2017-Dec-11 07:02N 44°24' E 037°10'0 8.4
2017-Dec-11 06:59N 44°24' E 037°09'  
2017-Dec-03 19:35N 44°12' E 036°44'112.4
2017-Dec-03 19:30N 44°12' E 036°46'812.3
2017-Dec-03 18:52N 44°15' E 036°56'412.3
2017-Dec-03 18:30N 44°17' E 037°01'612.2
2017-Dec-03 18:00N 44°20' E 037°09'612.4
2017-Dec-03 17:30N 44°23' E 037°17'612.5
2017-Dec-03 17:00N 44°26' E 037°24'1012.5
2017-Dec-03 16:11N 44°31' E 037°37'212.3
2017-Dec-03 16:00N 44°32' E 037°40'611.9
2017-Dec-03 15:30N 44°35' E 037°46'5 9.5
2017-Dec-03 15:00N 44°39' E 037°50'3 5.9
2017-Dec-03 14:30N 44°42' E 037°50'0 0.3
2017-Dec-03 14:00N 44°42' E 037°50'0 0.0
2017-Dec-03 13:30N 44°42' E 037°50'0 0.0
2017-Dec-03 13:00N 44°42' E 037°50'0 0.0
2017-Dec-03 12:30N 44°42' E 037°50'0 0.0
2017-Dec-03 12:00N 44°42' E 037°50'0 0.0
2017-Dec-03 11:30N 44°42' E 037°50'0 0.0
2017-Dec-03 11:00N 44°42' E 037°50'0 0.0
2017-Dec-03 10:27N 44°42' E 037°50'0 0.0
2017-Dec-03 10:00N 44°42' E 037°50'0 0.0
2017-Dec-03 09:27N 44°42' E 037°50'0 0.0
2017-Dec-03 09:00N 44°42' E 037°50'0 0.0
2017-Dec-03 08:30N 44°42' E 037°50'0 0.0
2017-Dec-03 08:00N 44°42' E 037°50'0 0.0
2017-Dec-03 07:30N 44°42' E 037°50'0 0.0
2017-Dec-03 07:00N 44°42' E 037°50'0 0.0
2017-Dec-03 06:30N 44°42' E 037°50'0 0.0
2017-Dec-03 06:00N 44°42' E 037°50'0 0.0
2017-Dec-03 05:30N 44°42' E 037°50'0 0.0
2017-Dec-03 05:00N 44°42' E 037°50'0 0.0
2017-Dec-03 04:30N 44°42' E 037°50'0 0.0
2017-Dec-03 04:00N 44°42' E 037°50'0 0.0
2017-Dec-03 03:30N 44°42' E 037°50'0 0.0
2017-Dec-03 03:00N 44°42' E 037°50'0 0.0
2017-Dec-03 02:30N 44°42' E 037°50'0 0.0
2017-Dec-03 02:00N 44°42' E 037°50'0 0.0
2017-Dec-03 01:30N 44°42' E 037°50'0 0.0
2017-Dec-03 01:00N 44°42' E 037°50'0 0.0
2017-Dec-03 00:30N 44°42' E 037°50'0 0.0
2017-Dec-03 00:00N 44°42' E 037°50'0 0.0
2017-Dec-02 23:30N 44°42' E 037°50'0 0.0
2017-Dec-02 23:00N 44°42' E 037°50'0 0.0
2017-Dec-02 22:30N 44°42' E 037°50'0 0.0
2017-Dec-02 22:00N 44°42' E 037°50'0 0.0
2017-Dec-02 21:30N 44°42' E 037°50'0 0.0
2017-Dec-02 21:00N 44°42' E 037°50'0 0.0
2017-Dec-02 20:30N 44°42' E 037°50'0 0.0
2017-Dec-02 20:00N 44°42' E 037°50'0 0.0
2017-Dec-02 19:30N 44°42' E 037°50'0 0.0
2017-Dec-02 19:00N 44°42' E 037°50'0 0.0
2017-Dec-02 18:15N 44°42' E 037°50'0 0.0
2017-Dec-02 17:21N 44°42' E 037°50'0 0.1
2017-Dec-02 17:00N 44°42' E 037°50'2 3.1
2017-Dec-02 16:15N 44°40' E 037°50'2 8.1
2017-Dec-02 16:00N 44°38' E 037°52'3 6.3
2017-Dec-02 15:30N 44°35' E 037°52'3 6.1
2017-Dec-02 15:01N 44°32' E 037°50'7 8.7
2017-Dec-02 14:13N 44°29' E 037°42'210.5
2017-Dec-02 14:00N 44°28' E 037°39'510.1
2017-Dec-02 13:31N 44°27' E 037°32'5 9.8
2017-Dec-02 13:00N 44°26' E 037°25'4 8.3
2017-Dec-02 12:31N 44°29' E 037°20'4 7.0
2017-Dec-02 11:58N 44°31' E 037°16'3 7.1
2017-Dec-02 11:30N 44°33' E 037°12'  
Track history (hours):
 
Tides and Currents Weather Stations Pressure Air Temp Water Temp Dewpoint Dewpoint Depression Visibility Wind Speed Wind Dir Waves Ship Positions

Altai

Last reported at 2017-Dec-11 07:02 UTC. Time now 2017-Dec-13 22:46 UTC.
Position N 44°24' E 037°10'.

Length 249 m; draft 8 m.

Type: Ship (hazmat cat A). MMSI: 538004508.

Date/timePositionNaut miles runAvg speedWind from/ knotsBaromVisibWave heightAir tempDewpointWater temp
2017-Dec-11 07:02N 44°24' E 037°10'0 8.4
2017-Dec-11 06:59N 44°24' E 037°09'  
2017-Dec-03 19:35N 44°12' E 036°44'112.4
2017-Dec-03 19:30N 44°12' E 036°46'812.3
2017-Dec-03 18:52N 44°15' E 036°56'412.3
2017-Dec-03 18:30N 44°17' E 037°01'612.2
2017-Dec-03 18:00N 44°20' E 037°09'612.4
2017-Dec-03 17:30N 44°23' E 037°17'612.5
2017-Dec-03 17:00N 44°26' E 037°24'1012.5
2017-Dec-03 16:11N 44°31' E 037°37'212.3
2017-Dec-03 16:00N 44°32' E 037°40'611.9
2017-Dec-03 15:30N 44°35' E 037°46'5 9.5
2017-Dec-03 15:00N 44°39' E 037°50'3 5.9
2017-Dec-03 14:30N 44°42' E 037°50'0 0.3
2017-Dec-03 14:00N 44°42' E 037°50'0 0.0
2017-Dec-03 13:30N 44°42' E 037°50'0 0.0
2017-Dec-03 13:00N 44°42' E 037°50'0 0.0
2017-Dec-03 12:30N 44°42' E 037°50'0 0.0
2017-Dec-03 12:00N 44°42' E 037°50'0 0.0
2017-Dec-03 11:30N 44°42' E 037°50'0 0.0
2017-Dec-03 11:00N 44°42' E 037°50'0 0.0
2017-Dec-03 10:27N 44°42' E 037°50'0 0.0
2017-Dec-03 10:00N 44°42' E 037°50'0 0.0
2017-Dec-03 09:27N 44°42' E 037°50'0 0.0
2017-Dec-03 09:00N 44°42' E 037°50'0 0.0
2017-Dec-03 08:30N 44°42' E 037°50'0 0.0
2017-Dec-03 08:00N 44°42' E 037°50'0 0.0
2017-Dec-03 07:30N 44°42' E 037°50'0 0.0
2017-Dec-03 07:00N 44°42' E 037°50'0 0.0
2017-Dec-03 06:30N 44°42' E 037°50'0 0.0
2017-Dec-03 06:00N 44°42' E 037°50'0 0.0
2017-Dec-03 05:30N 44°42' E 037°50'0 0.0
2017-Dec-03 05:00N 44°42' E 037°50'0 0.0
2017-Dec-03 04:30N 44°42' E 037°50'0 0.0
2017-Dec-03 04:00N 44°42' E 037°50'0 0.0
2017-Dec-03 03:30N 44°42' E 037°50'0 0.0
2017-Dec-03 03:00N 44°42' E 037°50'0 0.0
2017-Dec-03 02:30N 44°42' E 037°50'0 0.0
2017-Dec-03 02:00N 44°42' E 037°50'0 0.0
2017-Dec-03 01:30N 44°42' E 037°50'0 0.0
2017-Dec-03 01:00N 44°42' E 037°50'0 0.0
2017-Dec-03 00:30N 44°42' E 037°50'0 0.0
2017-Dec-03 00:00N 44°42' E 037°50'0 0.0
2017-Dec-02 23:30N 44°42' E 037°50'0 0.0
2017-Dec-02 23:00N 44°42' E 037°50'0 0.0
2017-Dec-02 22:30N 44°42' E 037°50'0 0.0
2017-Dec-02 22:00N 44°42' E 037°50'0 0.0
2017-Dec-02 21:30N 44°42' E 037°50'0 0.0
2017-Dec-02 21:00N 44°42' E 037°50'0 0.0
2017-Dec-02 20:30N 44°42' E 037°50'0 0.0
2017-Dec-02 20:00N 44°42' E 037°50'0 0.0
2017-Dec-02 19:30N 44°42' E 037°50'0 0.0
2017-Dec-02 19:00N 44°42' E 037°50'0 0.0
2017-Dec-02 18:15N 44°42' E 037°50'0 0.0
2017-Dec-02 17:21N 44°42' E 037°50'0 0.1
2017-Dec-02 17:00N 44°42' E 037°50'2 3.1
2017-Dec-02 16:15N 44°40' E 037°50'2 8.1
2017-Dec-02 16:00N 44°38' E 037°52'3 6.3
2017-Dec-02 15:30N 44°35' E 037°52'3 6.1
2017-Dec-02 15:01N 44°32' E 037°50'7 8.7
2017-Dec-02 14:13N 44°29' E 037°42'210.5
2017-Dec-02 14:00N 44°28' E 037°39'510.1
2017-Dec-02 13:31N 44°27' E 037°32'5 9.8
2017-Dec-02 13:00N 44°26' E 037°25'4 8.3
2017-Dec-02 12:31N 44°29' E 037°20'4 7.0
2017-Dec-02 11:58N 44°31' E 037°16'3 7.1
2017-Dec-02 11:30N 44°33' E 037°12'  

Dump ship's entire track history